createdAt,value
2018-03-28T00:00:58.887Z,13.05
2018-03-28T00:03:26.494Z,13.30
2018-03-28T00:05:54.085Z,12.25
2018-03-28T00:08:21.765Z,13.20
2018-03-28T00:10:49.413Z,13.68
2018-03-28T00:13:18.691Z,14.52
2018-03-28T00:15:46.292Z,13.65
2018-03-28T00:18:13.970Z,14.38
2018-03-28T00:20:41.585Z,14.95
2018-03-28T00:23:10.238Z,13.02
2018-03-28T00:25:37.855Z,12.60
2018-03-28T00:28:06.269Z,14.77
2018-03-28T00:30:33.890Z,15.20
2018-03-28T00:33:02.359Z,13.45
2018-03-28T00:35:30.714Z,15.13
2018-03-28T00:37:58.313Z,13.30
2018-03-28T00:40:25.911Z,14.30
2018-03-28T00:42:53.528Z,14.20
2018-03-28T00:45:22.487Z,13.70
2018-03-28T00:47:50.125Z,14.65
2018-03-28T00:50:17.750Z,15.77
2018-03-28T00:52:46.095Z,15.57
2018-03-28T00:55:13.726Z,15.75
2018-03-28T00:57:41.309Z,14.87
2018-03-28T01:00:09.442Z,15.30
2018-03-28T01:02:37.064Z,16.75
2018-03-28T01:05:05.732Z,15.43
2018-03-28T01:07:33.314Z,18.23
2018-03-28T01:10:01.776Z,16.33
2018-03-28T01:12:30.934Z,16.05
2018-03-28T01:14:58.594Z,16.95
2018-03-28T01:17:26.190Z,15.90
2018-03-28T01:19:53.831Z,18.20
2018-03-28T01:22:21.715Z,17.52
2018-03-28T01:24:49.314Z,17.87
2018-03-28T01:27:18.507Z,17.02
2018-03-28T01:29:46.093Z,15.25
2018-03-28T01:32:13.750Z,16.85
2018-03-28T01:34:42.134Z,16.25
2018-03-28T01:37:09.757Z,16.62
2018-03-28T01:39:37.360Z,16.25
2018-03-28T01:42:05.060Z,19.02
2018-03-28T01:44:33.402Z,17.92
2018-03-28T01:47:01.020Z,19.10
2018-03-28T01:49:28.635Z,18.00
2018-03-28T01:51:57.202Z,19.35
2018-03-28T01:54:25.529Z,18.95
2018-03-28T01:56:53.175Z,18.27
2018-03-28T01:59:20.793Z,18.80
2018-03-28T02:01:49.936Z,18.50
2018-03-28T02:04:17.541Z,19.62
2018-03-28T02:06:46.643Z,19.37
2018-03-28T02:09:14.348Z,18.55
2018-03-28T02:11:41.987Z,18.48
2018-03-28T02:14:10.508Z,18.30
2018-03-28T02:16:38.746Z,18.83
2018-03-28T02:19:06.367Z,19.83
2018-03-28T02:21:33.967Z,17.87
2018-03-28T02:24:02.786Z,18.20
2018-03-28T02:26:30.361Z,19.02
2018-03-28T02:28:58.766Z,19.15
2018-03-28T02:31:26.416Z,18.35
2018-03-28T02:33:54.086Z,19.15
2018-03-28T02:36:21.695Z,19.70
2018-03-28T02:38:49.302Z,21.52
2018-03-28T02:41:16.930Z,19.92
2018-03-28T02:43:44.550Z,19.30
2018-03-28T02:46:12.892Z,21.95
2018-03-28T02:48:41.294Z,21.70
2018-03-28T02:51:08.904Z,20.00
2018-03-28T02:53:36.503Z,21.45
2018-03-28T02:56:04.138Z,19.60
2018-03-28T02:58:31.779Z,22.60
2018-03-28T03:00:59.387Z,21.08
2018-03-28T03:03:27.121Z,21.48
2018-03-28T03:05:54.712Z,20.55
2018-03-28T03:08:22.336Z,22.20
2018-03-28T03:10:50.662Z,21.92
2018-03-28T03:13:18.996Z,23.17
2018-03-28T03:15:46.574Z,20.95
2018-03-28T03:18:14.197Z,20.90
2018-03-28T03:20:43.524Z,19.52
2018-03-28T03:23:12.343Z,25.40
2018-03-28T03:25:40.706Z,27.17
2018-03-28T03:28:08.281Z,25.48
2018-03-28T03:30:35.895Z,26.33
2018-03-28T03:33:03.571Z,22.77
2018-03-28T03:35:31.228Z,22.83
2018-03-28T03:37:58.845Z,22.23
2018-03-28T03:40:28.189Z,24.70
2018-03-28T03:42:55.830Z,25.83
2018-03-28T03:45:23.423Z,24.12
2018-03-28T03:47:51.042Z,28.45
2018-03-28T03:50:18.641Z,25.90
2018-03-28T03:52:46.285Z,26.83
2018-03-28T03:55:13.954Z,28.42
2018-03-28T03:57:41.547Z,23.60
2018-03-28T04:00:09.193Z,27.00
2018-03-28T04:02:36.815Z,25.80
2018-03-28T04:05:04.475Z,27.50
2018-03-28T04:07:32.065Z,28.80
2018-03-28T04:10:00.679Z,32.40
2018-03-28T04:12:28.298Z,30.83
2018-03-28T04:14:55.929Z,29.25
2018-03-28T04:17:23.599Z,29.25
2018-03-28T04:19:51.972Z,30.55
2018-03-28T04:22:20.355Z,31.62
2018-03-28T04:24:48.012Z,29.05
2018-03-28T04:27:15.613Z,31.02
2018-03-28T04:29:43.983Z,31.67
2018-03-28T04:32:12.372Z,30.73
2018-03-28T04:34:39.993Z,34.88
2018-03-28T04:37:07.644Z,31.75
2018-03-28T04:39:36.203Z,33.42
2018-03-28T04:42:03.805Z,34.75
2018-03-28T04:44:31.396Z,33.60
2018-03-28T04:46:59.122Z,36.75
2018-03-28T04:49:26.741Z,33.88
2018-03-28T04:51:54.406Z,38.20
2018-03-28T04:54:22.137Z,34.45
2018-03-28T04:56:49.789Z,36.53
2018-03-28T04:59:17.478Z,32.47
2018-03-28T05:01:45.111Z,31.95
2018-03-28T05:04:12.763Z,32.75
2018-03-28T05:06:40.690Z,32.75
2018-03-28T05:09:08.310Z,34.30
2018-03-28T05:11:35.976Z,32.72
2018-03-28T05:14:03.573Z,35.83
2018-03-28T05:16:31.323Z,32.55
2018-03-28T05:18:58.920Z,30.60
2018-03-28T05:21:27.028Z,32.83
2018-03-28T05:23:55.340Z,33.50
2018-03-28T05:26:22.929Z,33.50
2018-03-28T05:28:50.536Z,30.83
2018-03-28T05:31:18.202Z,32.22
2018-03-28T05:33:45.814Z,32.72
2018-03-28T05:36:13.449Z,33.30
2018-03-28T05:38:41.181Z,32.15
2018-03-28T05:41:08.850Z,34.10
2018-03-28T05:43:36.471Z,33.28
2018-03-28T05:46:04.119Z,32.00
2018-03-28T05:48:31.736Z,34.75
2018-03-28T05:50:59.370Z,35.72
2018-03-28T05:53:26.998Z,33.75
2018-03-28T05:55:54.637Z,35.35
2018-03-28T05:58:22.297Z,34.85
2018-03-28T06:00:49.905Z,36.72
2018-03-28T06:03:18.252Z,36.28
2018-03-28T06:05:45.889Z,34.45
2018-03-28T06:08:13.544Z,35.67
2018-03-28T06:10:41.270Z,33.03
2018-03-28T06:13:08.876Z,35.17
2018-03-28T06:15:36.531Z,35.83
2018-03-28T06:18:04.174Z,34.95
2018-03-28T06:20:32.500Z,34.40
2018-03-28T06:23:00.106Z,39.00
2018-03-28T06:25:28.031Z,38.42
2018-03-28T06:27:55.872Z,37.33
2018-03-28T06:30:23.551Z,34.70
2018-03-28T06:32:51.188Z,40.33
2018-03-28T06:35:18.795Z,36.97
2018-03-28T06:37:47.162Z,36.17
2018-03-28T06:40:14.790Z,36.47
2018-03-28T06:42:42.400Z,39.40
2018-03-28T06:45:10.151Z,37.90
2018-03-28T06:47:37.796Z,35.60
2018-03-28T06:50:05.453Z,38.17
2018-03-28T06:52:33.225Z,39.25
2018-03-28T06:55:00.887Z,39.60
2018-03-28T06:57:28.638Z,39.17
2018-03-28T06:59:56.279Z,40.12
2018-03-28T07:02:23.893Z,40.15
2018-03-28T07:04:51.471Z,35.58
2018-03-28T07:07:19.063Z,38.95
2018-03-28T07:09:46.666Z,34.10
2018-03-28T07:12:14.302Z,34.55
2018-03-28T07:14:42.833Z,32.28
2018-03-28T07:17:10.444Z,35.40
2018-03-28T07:19:38.055Z,37.03
2018-03-28T07:22:05.665Z,34.03
2018-03-28T07:24:33.250Z,31.58
2018-03-28T07:27:00.878Z,31.35
2018-03-28T07:29:28.508Z,29.87
2018-03-28T07:31:56.984Z,32.00
2018-03-28T07:34:24.671Z,31.20
2018-03-28T07:36:52.354Z,33.40
2018-03-28T07:39:19.953Z,32.13
2018-03-28T07:41:47.556Z,33.78
2018-03-28T07:44:15.945Z,30.60
2018-03-28T07:46:44.947Z,30.50
2018-03-28T07:49:12.607Z,30.90
2018-03-28T07:51:40.257Z,29.33
2018-03-28T07:54:08.954Z,30.62
2018-03-28T07:56:36.566Z,29.27
2018-03-28T07:59:04.156Z,26.52
2018-03-28T08:01:32.551Z,29.25
2018-03-28T08:04:00.211Z,27.52
2018-03-28T08:06:27.859Z,28.27
2018-03-28T08:08:56.240Z,28.10
2018-03-28T08:11:24.615Z,29.08
2018-03-28T08:13:54.001Z,28.27
2018-03-28T08:16:22.570Z,28.33
2018-03-28T08:18:50.807Z,24.70
2018-03-28T08:21:19.215Z,27.13
2018-03-28T08:23:46.851Z,26.12
2018-03-28T08:26:14.515Z,26.02
2018-03-28T08:28:42.188Z,24.05
2018-03-28T08:31:09.814Z,26.48
2018-03-28T08:33:38.210Z,24.40
2018-03-28T08:36:05.835Z,24.55
2018-03-28T08:38:33.925Z,25.45
2018-03-28T08:41:01.615Z,26.23
2018-03-28T08:43:29.258Z,23.85
2018-03-28T08:45:57.726Z,23.23
2018-03-28T08:48:26.151Z,24.30
2018-03-28T08:50:53.768Z,25.30
2018-03-28T08:53:21.417Z,23.33
2018-03-28T08:55:49.012Z,24.83
2018-03-28T08:58:16.665Z,22.52
2018-03-28T09:00:44.584Z,23.42
2018-03-28T09:03:12.210Z,25.37
2018-03-28T09:05:39.881Z,24.40
2018-03-28T09:08:08.299Z,23.33
2018-03-28T09:10:35.949Z,23.87
2018-03-28T09:13:04.158Z,21.77
2018-03-28T09:15:32.591Z,21.42
2018-03-28T09:18:00.196Z,22.48
2018-03-28T09:20:29.769Z,24.25
2018-03-28T09:22:57.393Z,22.52
2018-03-28T09:25:24.995Z,23.40
2018-03-28T09:27:52.674Z,25.58
2018-03-28T09:30:20.298Z,25.60
2018-03-28T09:32:47.966Z,22.77
2018-03-28T09:35:16.476Z,23.60
2018-03-28T09:37:44.112Z,24.85
2018-03-28T09:40:11.757Z,25.60
2018-03-28T09:42:39.384Z,24.58
2018-03-28T09:45:07.026Z,22.02
2018-03-28T09:47:34.653Z,20.88
2018-03-28T09:50:02.343Z,25.00
2018-03-28T09:52:30.387Z,22.40
2018-03-28T09:54:58.050Z,21.15
2018-03-28T09:57:25.640Z,21.87
2018-03-28T09:59:54.123Z,20.05
2018-03-28T10:02:27.338Z,20.50
2018-03-28T10:04:59.594Z,21.75
2018-03-28T10:07:27.613Z,20.08
2018-03-28T10:09:55.241Z,21.35
2018-03-28T10:12:23.654Z,21.05
2018-03-28T10:14:51.288Z,21.65
2018-03-28T10:17:19.655Z,22.62
2018-03-28T10:19:48.085Z,21.87
2018-03-28T10:22:15.727Z,27.33
2018-03-28T10:24:43.516Z,23.05
2018-03-28T10:27:11.169Z,22.30
2018-03-28T10:29:38.814Z,20.17
2018-03-28T10:32:06.462Z,24.17
2018-03-28T10:34:35.568Z,21.12
2018-03-28T10:37:03.246Z,20.25
2018-03-28T10:39:31.120Z,21.50
2018-03-28T10:41:58.699Z,19.83
2018-03-28T10:44:26.539Z,18.40
2018-03-28T10:46:54.165Z,18.95
2018-03-28T10:49:23.782Z,20.80
2018-03-28T10:51:51.408Z,18.45
2018-03-28T10:54:19.141Z,18.60
2018-03-28T10:56:47.841Z,19.48
2018-03-28T10:59:15.524Z,19.30
2018-03-28T11:01:43.163Z,18.58
2018-03-28T11:04:10.929Z,16.77
2018-03-28T11:06:38.563Z,18.70
2018-03-28T11:09:06.252Z,19.08
2018-03-28T11:11:33.886Z,20.10
2018-03-28T11:14:01.536Z,18.45
2018-03-28T11:16:29.960Z,18.73
2018-03-28T11:18:57.571Z,18.50
2018-03-28T11:21:25.985Z,18.60
2018-03-28T11:23:53.652Z,19.58
2018-03-28T11:26:22.114Z,20.00
2018-03-28T11:28:49.759Z,17.08
2018-03-28T11:31:18.202Z,19.35
2018-03-28T11:33:45.826Z,15.88
2018-03-28T11:36:13.504Z,20.20
2018-03-28T11:38:41.678Z,18.02
2018-03-28T11:41:09.295Z,18.75
2018-03-28T11:43:36.923Z,18.37
2018-03-28T11:46:04.590Z,19.70
2018-03-28T11:48:32.279Z,17.45
2018-03-28T11:51:00.674Z,18.75
2018-03-28T11:53:29.022Z,20.80
2018-03-28T11:55:56.752Z,21.00
2018-03-28T11:58:24.380Z,21.73
2018-03-28T12:00:52.065Z,20.05
2018-03-28T12:03:19.980Z,21.25
2018-03-28T12:05:47.612Z,22.08
2018-03-28T12:08:15.263Z,23.38
2018-03-28T12:10:42.894Z,20.70
2018-03-28T12:13:11.403Z,22.42
2018-03-28T12:15:39.015Z,20.60
2018-03-28T12:18:06.587Z,21.20
2018-03-28T12:20:35.316Z,22.17
2018-03-28T12:23:02.875Z,23.40
2018-03-28T12:25:30.582Z,23.05
2018-03-28T12:27:58.226Z,23.65
2018-03-28T12:30:25.924Z,21.00
2018-03-28T12:32:54.283Z,22.80
2018-03-28T12:35:21.919Z,23.83
2018-03-28T12:37:49.592Z,24.00
2018-03-28T12:40:17.244Z,25.12
2018-03-28T12:42:44.910Z,23.85
2018-03-28T12:45:12.601Z,26.33
2018-03-28T12:47:40.252Z,29.42
2018-03-28T12:50:07.858Z,26.55
2018-03-28T12:52:35.497Z,30.60
2018-03-28T12:55:03.934Z,29.83
2018-03-28T12:57:31.641Z,33.90
2018-03-28T12:59:59.298Z,33.38
2018-03-28T13:02:26.921Z,34.70
2018-03-28T13:04:54.757Z,38.85
2018-03-28T13:07:22.387Z,36.45
2018-03-28T13:09:50.820Z,38.53
2018-03-28T13:12:18.438Z,42.20
2018-03-28T13:14:46.074Z,38.67
2018-03-28T13:17:13.724Z,40.35
2018-03-28T13:19:41.308Z,40.55
2018-03-28T13:22:09.028Z,42.35
2018-03-28T13:24:36.661Z,43.83
2018-03-28T13:27:05.144Z,42.38
2018-03-28T13:29:32.808Z,43.58
2018-03-28T13:32:00.418Z,42.58
2018-03-28T13:34:28.842Z,38.42
2018-03-28T13:36:57.223Z,31.55
2018-03-28T13:39:24.854Z,31.40
2018-03-28T13:41:52.567Z,32.60
2018-03-28T13:44:21.002Z,34.45
2018-03-28T13:46:48.625Z,32.75
2018-03-28T13:49:16.209Z,31.77
2018-03-28T13:51:43.908Z,32.75
2018-03-28T13:54:12.278Z,35.83
2018-03-28T13:56:39.938Z,34.50
2018-03-28T13:59:08.292Z,34.40
2018-03-28T14:01:36.112Z,31.87
2018-03-28T14:04:03.844Z,29.45
2018-03-28T14:06:32.242Z,30.98
2018-03-28T14:08:59.905Z,31.48
2018-03-28T14:11:27.677Z,32.53
2018-03-28T14:13:56.056Z,31.65
2018-03-28T14:16:23.735Z,34.08
2018-03-28T14:18:51.392Z,33.53
2018-03-28T14:21:19.070Z,35.88
2018-03-28T14:23:46.756Z,33.70
2018-03-28T14:26:14.402Z,32.53
2018-03-28T14:28:42.121Z,34.60
2018-03-28T14:31:09.708Z,34.53
2018-03-28T14:33:37.314Z,31.48
2018-03-28T14:36:04.951Z,31.60
2018-03-28T14:38:32.575Z,30.88
2018-03-28T14:41:01.152Z,30.83
2018-03-28T14:43:28.764Z,32.13
2018-03-28T14:45:56.354Z,30.83
2018-03-28T14:48:23.951Z,27.40
2018-03-28T14:50:51.552Z,27.87
2018-03-28T14:53:19.178Z,20.50
2018-03-28T14:55:46.922Z,19.10
2018-03-28T14:58:14.529Z,16.77
2018-03-28T15:00:42.202Z,19.25
2018-03-28T15:03:10.404Z,21.52
2018-03-28T15:05:38.014Z,20.88
2018-03-28T15:08:05.664Z,21.27
2018-03-28T15:10:33.396Z,22.80
2018-03-28T15:13:00.992Z,26.65
2018-03-28T15:15:28.699Z,19.80
2018-03-28T15:17:56.369Z,21.98
2018-03-28T15:20:25.146Z,17.45
2018-03-28T15:22:52.761Z,20.83
2018-03-28T15:25:20.375Z,17.55
2018-03-28T15:27:48.021Z,16.87
2018-03-28T15:30:16.549Z,17.87
2018-03-28T15:32:44.937Z,17.83
2018-03-28T15:35:12.578Z,17.90
2018-03-28T15:37:41.737Z,17.00
2018-03-28T15:40:10.227Z,20.08
2018-03-28T15:42:38.150Z,18.20
2018-03-28T15:45:05.772Z,16.95
2018-03-28T15:47:34.204Z,17.00
2018-03-28T15:50:01.805Z,16.05
2018-03-28T15:52:29.411Z,16.15
2018-03-28T15:54:57.060Z,17.73
2018-03-28T15:57:25.003Z,18.20
2018-03-28T15:59:52.636Z,17.73
2018-03-28T16:02:20.286Z,17.35
2018-03-28T16:04:47.925Z,17.60
2018-03-28T16:07:15.581Z,17.55
2018-03-28T16:09:43.234Z,16.02
2018-03-28T16:12:10.927Z,18.40
2018-03-28T16:14:38.560Z,17.83
2018-03-28T16:17:06.249Z,16.92
2018-03-28T16:19:33.910Z,17.52
2018-03-28T16:22:01.641Z,16.00
2018-03-28T16:24:29.447Z,18.50
2018-03-28T16:26:57.071Z,15.35
2018-03-28T16:29:25.540Z,14.98
2018-03-28T16:31:54.034Z,18.73
2018-03-28T16:34:21.860Z,15.05
2018-03-28T16:36:49.648Z,15.90
2018-03-28T16:39:17.309Z,14.65
2018-03-28T16:41:45.716Z,15.18
2018-03-28T16:44:13.471Z,18.55
2018-03-28T16:46:41.260Z,18.55
2018-03-28T16:49:09.037Z,16.37
2018-03-28T16:51:36.675Z,16.70
2018-03-28T16:54:05.255Z,15.30
2018-03-28T16:56:33.716Z,17.70
2018-03-28T16:59:02.177Z,16.62
2018-03-28T17:01:29.839Z,13.82
2018-03-28T17:03:57.478Z,13.62
2018-03-28T17:06:25.145Z,13.02
2018-03-28T17:08:52.742Z,12.80
2018-03-28T17:11:20.424Z,14.70
2018-03-28T17:13:48.837Z,14.10
2018-03-28T17:16:17.305Z,12.80
2018-03-28T17:18:44.907Z,10.95
2018-03-28T17:21:12.561Z,10.95
2018-03-28T17:23:40.323Z,9.82
2018-03-28T17:26:07.944Z,9.63
2018-03-28T17:28:36.480Z,7.18
2018-03-28T17:31:04.100Z,6.62
2018-03-28T17:33:31.725Z,7.25
2018-03-28T17:36:00.362Z,7.20
2018-03-28T17:38:27.955Z,9.80
2018-03-28T17:40:55.674Z,9.90
2018-03-28T17:43:23.307Z,8.93
2018-03-28T17:45:50.960Z,7.45
2018-03-28T17:48:18.633Z,6.95
2018-03-28T17:50:46.255Z,6.70
2018-03-28T17:53:13.832Z,6.35
2018-03-28T17:55:41.509Z,6.40
2018-03-28T17:58:09.131Z,6.57
2018-03-28T18:00:36.759Z,6.12
2018-03-28T18:03:04.410Z,5.68
2018-03-28T18:05:32.027Z,6.80
2018-03-28T18:07:59.642Z,6.05
2018-03-28T18:10:27.357Z,6.87
2018-03-28T18:12:55.024Z,6.53
2018-03-28T18:15:23.373Z,6.53
2018-03-28T18:17:50.993Z,8.10
2018-03-28T18:20:18.589Z,5.10
2018-03-28T18:22:46.247Z,5.60
2018-03-28T18:25:13.925Z,6.40
2018-03-28T18:27:41.543Z,6.10
2018-03-28T18:30:09.350Z,5.55
2018-03-28T18:32:37.755Z,6.55
2018-03-28T18:35:05.365Z,5.95
2018-03-28T18:37:33.167Z,5.72
2018-03-28T18:40:00.808Z,6.20
2018-03-28T18:42:28.418Z,6.22
2018-03-28T18:44:56.090Z,6.55
2018-03-28T18:47:24.797Z,6.45
2018-03-28T18:49:52.489Z,5.85
2018-03-28T18:52:20.093Z,6.22
2018-03-28T18:54:47.831Z,6.10
2018-03-28T18:57:15.516Z,6.85
2018-03-28T18:59:43.900Z,6.07
2018-03-28T19:02:12.343Z,5.20
2018-03-28T19:04:40.057Z,5.40
2018-03-28T19:07:07.729Z,5.93
2018-03-28T19:09:35.347Z,6.53
2018-03-28T19:12:02.985Z,7.35
2018-03-28T19:14:30.563Z,7.22
2018-03-28T19:16:58.179Z,7.80
2018-03-28T19:19:25.790Z,7.55
2018-03-28T19:21:53.475Z,7.45
2018-03-28T19:24:21.136Z,7.85
2018-03-28T19:26:49.615Z,8.70
2018-03-28T19:29:17.280Z,8.55
2018-03-28T19:31:45.746Z,8.90
2018-03-28T19:34:13.354Z,8.95
2018-03-28T19:36:40.982Z,8.18
2018-03-28T19:39:08.629Z,7.55
2018-03-28T19:41:36.220Z,9.40
2018-03-28T19:44:03.834Z,10.20
2018-03-28T19:46:31.586Z,9.75
2018-03-28T19:48:59.169Z,8.80
2018-03-28T19:51:26.832Z,10.60
2018-03-28T19:53:54.415Z,8.75
2018-03-28T19:56:22.835Z,10.23
2018-03-28T19:58:50.707Z,10.27
2018-03-28T20:01:18.331Z,12.40
2018-03-28T20:03:47.062Z,9.70
2018-03-28T20:06:14.726Z,9.25
2018-03-28T20:08:43.291Z,9.73
2018-03-28T20:11:10.935Z,10.20
2018-03-28T20:13:38.640Z,8.57
2018-03-28T20:16:06.302Z,10.45
2018-03-28T20:18:34.571Z,7.90
2018-03-28T20:21:02.239Z,10.43
2018-03-28T20:23:29.992Z,9.70
2018-03-28T20:25:58.526Z,8.50
2018-03-28T20:28:26.223Z,6.62
2018-03-28T20:30:54.294Z,8.68
2018-03-28T20:33:22.009Z,6.45
2018-03-28T20:35:49.638Z,7.70
2018-03-28T20:38:17.349Z,7.85
2018-03-28T20:40:44.996Z,4.22
2018-03-28T20:43:12.638Z,4.12
2018-03-28T20:45:40.361Z,4.85
2018-03-28T20:48:07.968Z,5.30
2018-03-28T20:50:35.587Z,6.68
2018-03-28T20:53:03.465Z,6.35
2018-03-28T20:55:31.095Z,5.75
2018-03-28T20:57:58.726Z,6.50
2018-03-28T21:00:26.357Z,5.85
2018-03-28T21:02:53.971Z,5.87
2018-03-28T21:05:21.572Z,5.20
2018-03-28T21:07:49.235Z,6.53
2018-03-28T21:10:16.898Z,5.82
2018-03-28T21:12:44.520Z,4.32
2018-03-28T21:15:12.932Z,3.97
2018-03-28T21:17:40.584Z,4.78
2018-03-28T21:20:08.194Z,5.00
2018-03-28T21:22:35.815Z,5.03
2018-03-28T21:25:04.285Z,4.57
2018-03-28T21:27:31.948Z,4.95
2018-03-28T21:29:59.627Z,4.68
2018-03-28T21:32:27.274Z,4.78
2018-03-28T21:34:55.051Z,5.35
2018-03-28T21:37:22.704Z,5.75
2018-03-28T21:39:50.322Z,5.37
2018-03-28T21:42:17.914Z,5.68
2018-03-28T21:44:45.516Z,5.40
2018-03-28T21:47:13.107Z,2.80
2018-03-28T21:49:40.751Z,4.45
2018-03-28T21:52:08.484Z,4.90
2018-03-28T21:54:36.168Z,3.22
2018-03-28T21:57:03.847Z,4.70
2018-03-28T21:59:31.514Z,3.95
2018-03-28T22:01:59.114Z,4.20
2018-03-28T22:04:26.788Z,4.97
2018-03-28T22:06:54.413Z,4.07
2018-03-28T22:09:22.807Z,4.12
2018-03-28T22:11:50.468Z,5.43
2018-03-28T22:14:19.710Z,4.05
2018-03-28T22:16:47.454Z,2.75
2018-03-28T22:19:15.092Z,4.12
2018-03-28T22:21:42.720Z,4.12
2018-03-28T22:24:10.327Z,4.05
2018-03-28T22:26:38.687Z,3.72
2018-03-28T22:29:06.322Z,5.62
2018-03-28T22:31:33.933Z,5.05
2018-03-28T22:34:01.531Z,4.20
2018-03-28T22:36:29.146Z,3.53
2018-03-28T22:38:57.623Z,3.25
2018-03-28T22:41:25.273Z,3.40
2018-03-28T22:43:52.884Z,2.92
2018-03-28T22:46:20.509Z,3.30
2018-03-28T22:48:48.107Z,2.75
2018-03-28T22:51:15.762Z,3.30
2018-03-28T22:53:44.208Z,2.45
2018-03-28T22:56:11.886Z,2.72
2018-03-28T22:58:39.472Z,2.47
2018-03-28T23:01:07.143Z,3.37
2018-03-28T23:03:34.749Z,3.22
2018-03-28T23:06:03.167Z,4.00
2018-03-28T23:08:30.811Z,3.08
2018-03-28T23:10:58.458Z,2.33
2018-03-28T23:13:26.055Z,2.90
2018-03-28T23:15:53.670Z,2.60
2018-03-28T23:18:21.335Z,2.28
2018-03-28T23:20:48.979Z,2.45
2018-03-28T23:23:16.616Z,2.80
2018-03-28T23:25:44.975Z,3.10
2018-03-28T23:28:12.603Z,2.17
2018-03-28T23:30:40.370Z,2.90
2018-03-28T23:33:08.005Z,2.70
2018-03-28T23:35:35.686Z,1.73
2018-03-28T23:38:04.064Z,2.00
2018-03-28T23:40:32.886Z,2.33
2018-03-28T23:43:00.535Z,2.05
2018-03-28T23:45:28.258Z,2.30
2018-03-28T23:47:55.876Z,1.30
2018-03-28T23:50:23.442Z,1.70
2018-03-28T23:52:51.174Z,1.90
2018-03-28T23:55:19.525Z,2.70
2018-03-28T23:57:47.163Z,2.30
